Time;durP1;ratioP1;P1;durP2;ratioP2;P2;SDS_P1;SDS_P2;PMS_P1;PMS_P2;Temp;Humidity;BMP_temperature;BMP_pressure;BME280_temperature;BME280_humidity;BME280_pressure;Samples;Min_cycle;Max_cycle;Signal;HPM_P1;HPM_P2
2022/07/30 00:00:39;;;;;;;6.95;1.80;;;;;14.70;99027.00;;;;5005883;28;82272;-63
2022/07/30 00:03:05;;;;;;;3.83;1.83;;;;;14.60;99025.00;;;;5003474;28;82443;-63
2022/07/30 00:05:32;;;;;;;6.75;2.40;;;14.40;99.90;14.50;99016.00;;;;5024485;28;83355;-67
2022/07/30 00:07:58;;;;;;;5.60;1.70;;;14.80;99.90;14.50;99032.00;;;;5024738;28;84106;-67
2022/07/30 00:10:24;;;;;;;6.47;2.05;;;;;14.50;99028.00;;;;5024439;28;82245;-66
2022/07/30 00:12:51;;;;;;;5.00;1.80;;;14.20;99.90;14.50;99021.00;;;;5023719;28;83805;-67
2022/07/30 00:15:17;;;;;;;5.93;1.85;;;14.60;99.90;14.40;99029.00;;;;5006139;28;82471;-67
2022/07/30 00:17:43;;;;;;;5.65;2.03;;;;;14.40;99026.00;;;;5024477;28;82664;-67
2022/07/30 00:20:10;;;;;;;3.38;1.70;;;;;14.40;99023.00;;;;5006871;28;84633;-67
2022/07/30 00:22:36;;;;;;;3.65;1.90;;;14.60;99.90;14.30;99019.00;;;;5006469;28;82089;-66
2022/07/30 00:25:03;;;;;;;3.53;1.80;;;;;14.30;99026.00;;;;5023437;28;82338;-66
2022/07/30 00:27:33;;;;;;;3.25;1.65;;;14.80;99.90;14.30;99023.00;;;;5023651;28;83632;-66
2022/07/30 00:30:00;;;;;;;8.82;2.15;;;;;14.20;99015.00;;;;5024508;28;83068;-66
2022/07/30 00:32:27;;;;;;;5.18;2.25;;;;;14.30;99010.00;;;;5006484;28;82618;-63
2022/07/30 00:34:53;;;;;;;5.65;1.80;;;14.10;99.90;14.30;99022.00;;;;5010399;28;82391;-63
2022/07/30 00:37:20;;;;;;;5.55;1.77;;;14.40;99.90;14.30;99024.00;;;;5022722;28;83168;-63
2022/07/30 00:39:47;;;;;;;3.30;2.03;;;14.00;99.90;14.30;99022.00;;;;5005626;28;83262;-63
2022/07/30 00:42:13;;;;;;;4.85;2.00;;;;;14.30;99011.00;;;;5023834;28;81887;-64
2022/07/30 00:44:40;;;;;;;4.18;2.15;;;;;14.20;99019.00;;;;5023157;28;82116;-63
2022/07/30 00:47:06;;;;;;;3.90;1.65;;;;;14.10;99015.00;;;;5023997;28;83007;-63
2022/07/30 00:49:33;;;;;;;5.13;1.75;;;;;13.90;99014.00;;;;5023452;28;82318;-63
2022/07/30 00:51:59;;;;;;;7.15;1.90;;;;;13.90;99015.00;;;;5022997;28;82627;-64
2022/07/30 00:54:26;;;;;;;5.47;1.98;;;;;14.00;99010.00;;;;5023126;28;82724;-62
2022/07/30 00:56:53;;;;;;;4.95;2.03;;;;;14.00;99014.00;;;;4994570;28;82630;-63
2022/07/30 00:59:20;;;;;;;3.83;1.80;;;;;14.00;99015.00;;;;4989269;28;82314;-63
2022/07/30 01:01:46;;;;;;;4.82;2.10;;;;;14.00;99005.00;;;;5002340;28;83981;-63
2022/07/30 01:04:12;;;;;;;4.75;1.95;;;14.40;99.90;13.90;99010.00;;;;5023296;28;83433;-63
2022/07/30 01:06:39;;;;;;;3.03;1.98;;;13.60;99.90;13.90;99005.00;;;;5023427;28;83709;-63
2022/07/30 01:09:07;;;;;;;3.88;1.90;;;14.00;99.90;13.90;99009.00;;;;5022317;28;82505;-63
2022/07/30 01:11:37;;;;;;;4.30;2.22;;;13.70;99.90;13.90;99019.00;;;;5023571;28;82105;-63
2022/07/30 01:14:08;;;;;;;4.03;2.13;;;13.90;99.90;13.80;99011.00;;;;5005278;28;82802;-63
2022/07/30 01:16:37;;;;;;;8.17;2.20;;;13.90;99.90;13.80;99004.00;;;;5023105;28;82652;-63
2022/07/30 01:22:06;;;;;;;;;;;13.90;99.90;13.70;99018.00;;;;4992132;28;82482;-63
2022/07/30 01:24:42;;;;;;;5.53;2.20;;;13.80;99.90;13.70;99012.00;;;;5023810;28;83445;-63
2022/07/30 01:27:10;;;;;;;5.53;2.55;;;13.70;99.90;13.60;99004.00;;;;5011986;28;83755;-63
2022/07/30 01:29:38;;;;;;;8.77;2.50;;;13.90;99.90;13.60;99004.00;;;;5020929;28;83140;-63
2022/07/30 01:32:07;;;;;;;6.55;2.60;;;13.60;99.90;13.60;99008.00;;;;5004702;28;82182;-63
2022/07/30 01:34:35;;;;;;;6.53;2.50;;;13.80;99.90;13.60;99002.00;;;;5004549;28;82397;-63
2022/07/30 01:37:04;;;;;;;5.93;2.70;;;13.40;99.90;13.60;99006.00;;;;4999739;28;82689;-63
2022/07/30 01:39:32;;;;;;;7.03;2.83;;;14.10;99.90;13.50;99001.00;;;;5005837;28;83467;-63
2022/07/30 01:42:04;;;;;;;3.97;2.33;;;13.50;99.90;13.50;99006.00;;;;4994662;28;82054;-63
2022/07/30 01:44:31;;;;;;;5.70;2.90;;;13.60;99.90;13.50;99006.00;;;;5005264;28;82238;-64
2022/07/30 01:46:59;;;;;;;4.53;2.50;;;13.40;99.90;13.40;99010.00;;;;4988767;28;82352;-63
2022/07/30 01:49:26;;;;;;;3.25;2.35;;;;;13.40;99003.00;;;;5005702;28;82434;-63
2022/07/30 01:51:54;;;;;;;8.57;2.60;;;13.50;99.90;13.50;99012.00;;;;5005021;28;82981;-63
2022/07/30 01:54:23;;;;;;;5.30;2.65;;;13.60;99.90;13.50;99016.00;;;;5004272;28;82466;-63
2022/07/30 01:56:51;;;;;;;3.97;2.42;;;13.50;99.90;13.50;99010.00;;;;5021310;28;82440;-63
2022/07/30 01:59:19;;;;;;;5.05;2.60;;;13.10;99.90;13.50;99020.00;;;;5005283;28;82298;-63
2022/07/30 02:01:47;;;;;;;5.97;2.78;;;13.10;99.90;13.50;99015.00;;;;5005057;28;82430;-63
2022/07/30 02:04:15;;;;;;;5.55;2.55;;;13.20;99.90;13.40;99009.00;;;;5005256;28;83144;-63
2022/07/30 02:06:58;;;;;;;6.45;2.95;;;13.50;99.90;13.40;99015.00;;;;5005093;28;82990;-63
2022/07/30 02:09:35;;;;;;;3.05;2.08;;;13.50;99.90;13.40;99007.00;;;;4998999;28;82255;-64
2022/07/30 02:12:27;;;;;;;3.72;2.75;;;12.90;99.90;13.40;99013.00;;;;5006740;28;82722;-63
2022/07/30 02:15:55;;;;;;;3.55;2.63;;;13.90;99.90;13.40;99006.00;;;;4996675;28;84352;-63
2022/07/30 02:18:32;;;;;;;5.72;2.75;;;13.50;99.90;13.40;99011.00;;;;5021504;28;83281;-63
2022/07/30 02:21:05;;;;;;;5.90;2.80;;;13.50;99.90;13.40;99014.00;;;;4985776;28;83492;-63
2022/07/30 02:23:38;;;;;;;4.45;2.72;;;13.50;99.90;13.40;99014.00;;;;5004328;28;82450;-63
2022/07/30 02:26:07;;;;;;;7.15;2.90;;;;;13.30;99011.00;;;;4971591;28;83878;-63
2022/07/30 02:28:38;;;;;;;7.03;2.60;;;13.40;99.90;13.40;99012.00;;;;5004325;28;83619;-63
2022/07/30 02:31:08;;;;;;;3.80;2.27;;;13.80;99.90;13.60;99018.00;;;;4987747;28;82337;-63
2022/07/30 02:33:40;;;;;;;6.30;2.13;;;14.10;99.90;13.60;99020.00;;;;4987602;28;82539;-63
2022/07/30 02:36:08;;;;;;;4.28;2.35;;;13.90;99.90;13.90;99009.00;;;;5001809;28;82508;-63
2022/07/30 02:38:37;;;;;;;6.72;2.00;;;14.80;99.90;14.80;99009.00;;;;4985840;28;82666;-63
2022/07/30 02:41:04;;;;;;;4.50;1.90;;;16.40;99.90;15.70;99017.00;;;;5004553;28;82366;-63
2022/07/30 02:43:31;;;;;;;2.53;1.58;;;16.30;99.90;16.60;99028.00;;;;4987263;28;82882;-64
2022/07/30 02:45:59;;;;;;;5.75;1.50;;;17.40;99.90;17.60;99021.00;;;;4993823;28;82775;-63
2022/07/30 02:48:40;;;;;;;2.90;1.10;;;18.00;99.90;18.40;99022.00;;;;4988127;28;84237;-63
2022/07/30 02:51:08;;;;;;;2.55;1.80;;;18.40;99.90;19.00;99029.00;;;;5004249;28;82433;-64
2022/07/30 02:53:37;;;;;;;6.68;1.27;;;18.70;99.90;19.20;99024.00;;;;4987363;28;82576;-64
2022/07/30 02:56:06;;;;;;;3.88;1.30;;;19.00;99.90;19.50;99028.00;;;;5004246;28;82445;-64
2022/07/30 02:58:36;;;;;;;3.50;1.30;;;19.20;99.90;19.70;99029.00;;;;4987952;28;83429;-63
2022/07/30 03:01:04;;;;;;;2.85;1.30;;;19.10;99.90;19.90;99035.00;;;;4972030;28;81888;-64
2022/07/30 03:03:31;;;;;;;3.63;1.20;;;19.70;99.90;20.20;99030.00;;;;5000478;28;82190;-64
2022/07/30 03:05:59;;;;;;;4.55;1.30;;;19.70;99.90;20.50;99027.00;;;;4987375;28;82491;-64
2022/07/30 03:08:27;;;;;;;4.18;1.30;;;20.30;99.90;20.80;99030.00;;;;5020849;28;83486;-64
2022/07/30 03:10:55;;;;;;;4.55;1.50;;;19.90;99.90;20.50;99038.00;;;;4987195;28;83154;-64
2022/07/30 03:13:24;;;;;;;1.95;1.20;;;19.50;99.90;20.50;99038.00;;;;4987209;28;82081;-62
2022/07/30 03:15:51;;;;;;;6.35;1.55;;;20.10;99.90;20.60;99030.00;;;;5003066;28;82830;-62
2022/07/30 03:18:21;;;;;;;5.28;1.15;;;20.70;99.90;21.10;99033.00;;;;5003014;28;82633;-62
2022/07/30 03:20:53;;;;;;;2.15;1.20;;;20.80;99.90;21.40;99036.00;;;;5004279;28;82569;-62
2022/07/30 03:23:21;;;;;;;5.32;1.40;;;20.80;99.90;21.20;99038.00;;;;5021102;28;82524;-62
2022/07/30 03:25:54;;;;;;;3.08;1.00;;;21.00;99.90;21.50;99037.00;;;;5003961;28;81767;-62
2022/07/30 03:28:23;;;;;;;7.55;1.50;;;21.00;99.90;21.60;99041.00;;;;4986178;28;83882;-62
2022/07/30 03:30:50;;;;;;;3.25;1.20;;;21.40;99.90;22.00;99052.00;;;;5003548;28;82129;-62
2022/07/30 03:33:18;;;;;;;2.42;1.10;;;21.20;99.90;21.80;99043.00;;;;5017893;28;83322;-62
2022/07/30 03:35:46;;;;;;;2.03;1.20;;;;;21.80;99050.00;;;;5003410;28;82700;-62
2022/07/30 03:38:16;;;;;;;4.00;1.20;;;21.00;99.90;21.70;99042.00;;;;5014302;28;82512;-62
2022/07/30 03:40:44;;;;;;;3.63;0.90;;;21.60;99.90;22.20;99055.00;;;;4985069;28;82424;-63
2022/07/30 03:43:12;;;;;;;3.45;1.13;;;21.80;99.90;22.40;99044.00;;;;4986506;28;82158;-62
2022/07/30 03:45:41;;;;;;;4.95;1.27;;;22.40;99.90;22.90;99040.00;;;;5003542;28;83635;-64
2022/07/30 03:48:11;;;;;;;4.18;0.80;;;22.10;99.90;23.00;99043.00;;;;4986166;28;84392;-62
2022/07/30 03:50:42;;;;;;;6.35;1.38;;;22.20;99.90;22.90;99061.00;;;;5020036;28;82031;-62
2022/07/30 03:53:10;;;;;;;2.08;1.02;;;;;22.80;99047.00;;;;4999246;28;82032;-62
2022/07/30 03:55:56;;;;;;;3.85;1.00;;;;;22.60;99059.00;;;;5019992;28;82839;-62
2022/07/30 03:58:55;;;;;;;3.03;1.02;;;;;22.70;99058.00;;;;5009064;28;83606;-62
2022/07/30 04:01:26;;;;;;;1.65;1.00;;;22.40;99.90;23.10;99063.00;;;;4988666;28;82255;-62
2022/07/30 04:04:07;;;;;;;1.85;0.80;;;23.00;99.90;23.90;99065.00;;;;5006774;28;82206;-62
2022/07/30 04:06:38;;;;;;;4.32;1.00;;;23.50;99.90;24.20;99063.00;;;;5023180;28;82460;-63
2022/07/30 04:09:07;;;;;;;4.82;1.55;;;23.40;99.90;24.30;99068.00;;;;5005749;28;82385;-62
2022/07/30 04:11:33;;;;;;;2.58;0.85;;;24.00;99.90;24.60;99065.00;;;;5022562;28;82375;-63
2022/07/30 04:14:08;;;;;;;5.38;1.00;;;;;24.50;99060.00;;;;5006062;28;81971;-63
2022/07/30 04:17:01;;;;;;;1.38;0.95;;;;;24.40;99060.00;;;;5005470;28;82226;-63
2022/07/30 04:19:35;;;;;;;3.22;1.23;;;23.00;99.90;24.30;99062.00;;;;5006340;28;82397;-63
2022/07/30 04:22:03;;;;;;;3.95;1.00;;;23.60;99.90;24.50;99065.00;;;;4989244;28;82877;-62
2022/07/30 04:24:32;;;;;;;4.18;0.90;;;;;24.70;99068.00;;;;4988637;28;83491;-63
2022/07/30 04:27:00;;;;;;;3.40;1.20;;;24.10;99.90;24.90;99064.00;;;;5005630;28;82883;-62
2022/07/30 04:29:26;;;;;;;1.88;0.75;;;24.40;99.90;25.20;99060.00;;;;4982653;28;82735;-63
2022/07/30 04:31:55;;;;;;;3.42;1.30;;;;;25.10;99074.00;;;;5006297;28;82611;-63
2022/07/30 04:34:33;;;;;;;2.28;1.08;;;24.40;99.90;25.00;99072.00;;;;4989792;28;82295;-63
2022/07/30 04:36:59;;;;;;;1.50;0.82;;;24.40;99.90;25.10;99070.00;;;;5013266;28;83627;-63
2022/07/30 04:39:26;;;;;;;4.60;1.05;;;24.20;99.90;25.20;99072.00;;;;5005927;28;82810;-62
2022/07/30 04:41:53;;;;;;;1.70;0.80;;;;;25.00;99080.00;;;;5006333;28;83209;-63
2022/07/30 04:44:31;;;;;;;2.60;1.00;;;23.80;99.90;24.90;99082.00;;;;5026066;28;82078;-62
2022/07/30 04:47:18;;;;;;;4.20;1.00;;;24.30;99.90;25.20;99082.00;;;;5021594;28;83011;-63
2022/07/30 04:49:56;;;;;;;3.03;1.17;;;;;25.20;99081.00;;;;5021447;28;83580;-62
2022/07/30 04:52:23;;;;;;;2.13;1.00;;;;;25.30;99080.00;;;;4989054;28;83229;-63
2022/07/30 04:54:57;;;;;;;2.17;0.90;;;24.70;99.90;25.40;99092.00;;;;4976476;28;82966;-62
2022/07/30 04:57:25;;;;;;;4.15;1.00;;;24.60;99.90;25.40;99093.00;;;;5005106;28;83400;-62
2022/07/30 04:59:51;;;;;;;2.03;0.90;;;24.50;99.90;25.40;99094.00;;;;4988770;28;82116;-62
2022/07/30 05:02:20;;;;;;;3.15;1.13;;;24.70;99.90;25.70;99089.00;;;;4988829;28;83031;-62
2022/07/30 05:04:48;;;;;;;3.28;1.20;;;24.60;99.60;26.30;99091.00;;;;5005590;28;81943;-62
2022/07/30 05:07:16;;;;;;;5.03;1.00;;;25.50;99.00;26.40;99096.00;;;;4988062;28;85525;-62
2022/07/30 05:09:44;;;;;;;2.60;0.80;;;;;26.50;99101.00;;;;4972480;28;85368;-63
2022/07/30 05:12:10;;;;;;;6.18;0.90;;;25.20;99.90;25.90;99094.00;;;;4989165;28;82282;-62
2022/07/30 05:14:36;;;;;;;3.60;1.00;;;;;24.50;99097.00;;;;5021996;28;83032;-62
2022/07/30 05:17:03;;;;;;;2.10;0.80;;;23.10;99.90;23.40;99105.00;;;;5005360;28;83280;-62
2022/07/30 05:19:29;;;;;;;4.90;1.10;;;22.70;99.90;23.40;99101.00;;;;5002616;28;82516;-62
2022/07/30 05:21:56;;;;;;;2.53;1.02;;;;;23.30;99095.00;;;;5016171;28;83353;-62
2022/07/30 05:24:24;;;;;;;1.15;0.75;;;;;23.20;99097.00;;;;5004789;28;82368;-62
2022/07/30 05:26:55;;;;;;;4.20;0.90;;;22.40;99.90;23.00;99096.00;;;;5005005;28;82736;-62
2022/07/30 05:29:23;;;;;;;1.75;0.82;;;;;22.80;99092.00;;;;5004663;28;83726;-62
2022/07/30 05:31:53;;;;;;;2.47;0.73;;;;;23.00;99089.00;;;;5005799;28;82426;-62
2022/07/30 05:34:20;;;;;;;1.58;0.80;;;22.60;99.90;23.20;99092.00;;;;5001966;28;81889;-62
2022/07/30 05:36:47;;;;;;;2.25;0.88;;;;;23.30;99088.00;;;;5004781;28;82560;-63
2022/07/30 05:39:16;;;;;;;1.83;0.65;;;22.10;99.90;23.10;99093.00;;;;5003727;28;83532;-62
2022/07/30 05:41:52;;;;;;;2.03;0.77;;;;;22.70;99101.00;;;;5004508;28;84726;-62
2022/07/30 05:44:28;;;;;;;2.22;0.90;;;;;23.40;99101.00;;;;5004975;28;82052;-63
2022/07/30 05:46:55;;;;;;;3.63;0.75;;;;;23.90;99093.00;;;;5004525;28;82237;-62
2022/07/30 05:49:22;;;;;;;5.25;0.80;;;23.00;99.90;24.10;99106.00;;;;4988526;28;83609;-63
2022/07/30 05:51:49;;;;;;;2.28;0.80;;;;;23.90;99111.00;;;;5004625;28;82475;-63
2022/07/30 05:54:16;;;;;;;1.90;0.75;;;;;24.10;99104.00;;;;5004187;28;82341;-62
2022/07/30 05:56:42;;;;;;;0.90;0.60;;;23.10;99.90;24.10;99111.00;;;;5022276;28;82286;-62
2022/07/30 05:59:14;;;;;;;3.15;1.00;;;24.10;99.90;24.80;99105.00;;;;5004482;28;84362;-63
2022/07/30 06:02:12;;;;;;;2.20;0.90;;;;;25.00;99106.00;;;;4991497;28;85603;-62
2022/07/30 06:05:02;;;;;;;1.38;1.00;;;24.40;99.90;25.10;99104.00;;;;4979308;28;83504;-62
2022/07/30 06:07:29;;;;;;;5.28;1.35;;;24.40;99.90;25.10;99105.00;;;;5005057;28;82138;-63
2022/07/30 06:09:59;;;;;;;2.97;0.95;;;;;24.30;99110.00;;;;4999785;28;83835;-63
2022/07/30 06:12:27;;;;;;;4.30;0.73;;;23.40;99.90;24.20;99096.00;;;;5004712;28;82566;-63
2022/07/30 06:14:54;;;;;;;2.63;0.82;;;;;24.30;99096.00;;;;4988121;28;82414;-63
2022/07/30 06:17:28;;;;;;;2.17;0.77;;;24.10;99.70;23.90;99099.00;;;;5004044;28;85255;-63
2022/07/30 06:20:20;;;;;;;4.97;0.93;;;23.10;99.90;23.70;99101.00;;;;5015362;28;83110;-63
2022/07/30 06:23:07;;;;;;;5.22;1.00;;;22.00;99.90;22.70;99094.00;;;;4983520;28;83433;-63
2022/07/30 06:26:04;;;;;;;3.42;0.95;;;;;22.20;99097.00;;;;5003126;28;82053;-63
2022/07/30 06:28:31;;;;;;;4.82;1.25;;;;;21.50;99103.00;;;;5004123;28;82445;-63
2022/07/30 06:30:58;;;;;;;1.92;0.80;;;;;21.20;99104.00;;;;5021469;28;85031;-63
2022/07/30 06:33:27;;;;;;;3.88;0.90;;;;;21.40;99108.00;;;;5002292;28;83166;-63
2022/07/30 06:35:54;;;;;;;3.13;1.00;;;;;21.60;99113.00;;;;5003899;28;82733;-63
2022/07/30 06:38:24;;;;;;;1.45;0.77;;;21.50;99.90;21.60;99106.00;;;;4987715;28;84742;-63
2022/07/30 06:41:02;;;;;;;2.83;0.80;;;;;21.40;99105.00;;;;4998356;28;85403;-63
2022/07/30 06:43:43;;;;;;;1.02;0.73;;;20.90;99.90;21.10;99112.00;;;;4989885;28;82248;-63
2022/07/30 06:46:45;;;;;;;5.15;0.98;;;;;21.00;99109.00;;;;4922551;28;82931;-62
2022/07/30 06:49:12;;;;;;;2.20;0.93;;;;;20.80;99104.00;;;;4973865;28;82133;-62
2022/07/30 06:51:38;;;;;;;6.35;1.08;;;20.60;99.90;20.90;99105.00;;;;5021958;28;82302;-62
2022/07/30 06:54:05;;;;;;;4.57;0.82;;;;;21.00;99112.00;;;;5003557;28;82040;-62
2022/07/30 06:56:34;;;;;;;2.60;1.23;;;21.20;99.90;21.40;99110.00;;;;5020917;28;83361;-64
2022/07/30 06:59:04;;;;;;;3.72;1.05;;;;;21.60;99106.00;;;;5002880;28;84173;-63
2022/07/30 07:01:52;;;;;;;3.03;1.10;;;22.10;99.90;22.10;99114.00;;;;4989941;28;84895;-63
2022/07/30 07:04:20;;;;;;;7.38;1.25;;;;;22.20;99115.00;;;;5003834;28;82362;-63
2022/07/30 07:06:46;;;;;;;3.75;0.80;;;21.60;99.90;21.80;99119.00;;;;5004033;28;82076;-63
2022/07/30 07:09:17;;;;;;;3.40;0.90;;;;;21.20;99114.00;;;;5003729;28;82609;-63
2022/07/30 07:11:50;;;;;;;2.00;0.90;;;;;21.30;99120.00;;;;5003429;28;82911;-63
2022/07/30 07:14:19;;;;;;;8.50;1.23;;;;;21.50;99116.00;;;;5003926;28;82211;-64
2022/07/30 07:16:48;;;;;;;3.20;1.20;;;21.40;99.90;21.80;99118.00;;;;5020112;28;82057;-63
2022/07/30 07:19:46;;;;;;;2.72;0.93;;;;;22.00;99118.00;;;;4963412;28;82244;-62
2022/07/30 07:22:13;;;;;;;6.65;1.30;;;21.50;99.90;22.10;99117.00;;;;4997191;28;83343;-63
2022/07/30 07:24:40;;;;;;;4.38;0.70;;;21.10;99.90;21.70;99123.00;;;;4987001;28;85768;-63
2022/07/30 07:27:11;;;;;;;1.87;1.00;;;;;21.60;99125.00;;;;5003873;28;82736;-62
2022/07/30 07:29:37;;;;;;;3.35;1.08;;;;;21.90;99104.00;;;;5003246;28;82174;-63
2022/07/30 07:32:04;;;;;;;5.07;0.95;;;;;22.60;99111.00;;;;5003706;28;82531;-63
2022/07/30 07:34:31;;;;;;;4.60;0.73;;;22.80;99.90;23.00;99108.00;;;;4987014;28;84621;-63
2022/07/30 07:36:57;;;;;;;1.75;0.82;;;22.20;99.90;22.90;99101.00;;;;5003399;28;82044;-63
2022/07/30 07:39:24;;;;;;;1.40;0.60;;;22.20;99.90;22.60;99108.00;;;;4975083;28;85148;-62
2022/07/30 07:41:51;;;;;;;2.88;0.70;;;;;22.40;99107.00;;;;5006723;28;83121;-63
2022/07/30 07:44:22;;;;;;;2.08;0.93;;;22.40;99.90;22.30;99109.00;;;;5006984;28;82527;-62
2022/07/30 07:46:48;;;;;;;3.60;0.80;;;;;21.80;99113.00;;;;5005728;28;83205;-62
2022/07/30 07:49:15;;;;;;;0.85;0.60;;;;;21.80;99118.00;;;;5007112;28;82547;-63
2022/07/30 07:51:46;;;;;;;2.63;0.70;;;;;21.90;99105.00;;;;5006470;28;82588;-64
2022/07/30 07:54:15;;;;;;;1.08;0.80;;;;;21.40;99113.00;;;;5006605;28;83794;-63
2022/07/30 07:56:42;;;;;;;3.13;1.02;;;;;21.70;99100.00;;;;5006038;28;82169;-64
2022/07/30 07:59:11;;;;;;;2.17;1.00;;;20.40;99.90;21.20;99105.00;;;;4990191;28;82689;-64
2022/07/30 08:01:38;;;;;;;1.58;0.98;;;;;20.60;99097.00;;;;5006271;28;84436;-63
2022/07/30 08:04:17;;;;;;;2.60;1.13;;;20.40;99.90;20.60;99096.00;;;;5008632;28;81975;-64
2022/07/30 08:07:02;;;;;;;3.42;1.10;;;;;20.40;99096.00;;;;5024137;28;81848;-63
2022/07/30 08:09:47;;;;;;;6.32;1.13;;;;;20.50;99086.00;;;;5017056;28;82137;-63
2022/07/30 08:12:45;;;;;;;1.85;0.95;;;20.80;99.90;20.80;99096.00;;;;5004645;28;85149;-64
2022/07/30 08:15:31;;;;;;;1.90;1.20;;;;;20.80;99083.00;;;;5022769;28;82295;-64
2022/07/30 08:18:23;;;;;;;3.28;1.00;;;;;21.00;99097.00;;;;4992012;28;82708;-63
2022/07/30 08:21:10;;;;;;;5.25;1.00;;;;;21.00;99089.00;;;;5007116;28;82929;-63
2022/07/30 08:23:37;;;;;;;3.00;0.85;;;;;20.80;99100.00;;;;5005026;28;82495;-63
2022/07/30 08:26:03;;;;;;;6.68;1.10;;;;;20.60;99084.00;;;;5005505;28;82514;-64
2022/07/30 08:28:30;;;;;;;3.67;1.10;;;;;20.60;99091.00;;;;4972576;28;82209;-63
2022/07/30 08:30:57;;;;;;;3.35;0.82;;;;;20.80;99075.00;;;;5005255;28;82293;-64
2022/07/30 08:33:24;;;;;;;2.65;1.10;;;20.80;99.90;21.10;99084.00;;;;5002190;28;82620;-63
2022/07/30 08:35:51;;;;;;;5.32;1.10;;;;;21.40;99074.00;;;;5004822;28;82742;-63
2022/07/30 08:38:17;;;;;;;2.58;0.80;;;;;21.40;99067.00;;;;4982940;28;83328;-63
2022/07/30 08:40:45;;;;;;;5.03;0.80;;;21.80;99.90;21.80;99069.00;;;;5005540;28;82348;-63
2022/07/30 08:43:14;;;;;;;2.45;0.80;;;22.00;99.90;22.20;99060.00;;;;4987637;28;83439;-64
2022/07/30 08:45:42;;;;;;;2.05;0.82;;;22.20;99.90;22.40;99057.00;;;;5022234;28;82162;-64
2022/07/30 08:48:25;;;;;;;1.98;0.90;;;22.30;99.90;22.40;99065.00;;;;4990624;28;82411;-64
2022/07/30 08:50:51;;;;;;;1.27;0.90;;;;;22.40;99068.00;;;;5022891;28;83378;-63
2022/07/30 08:53:34;;;;;;;2.72;0.90;;;21.70;99.90;22.00;99068.00;;;;5007910;28;82723;-65
2022/07/30 08:56:02;;;;;;;3.63;0.90;;;21.80;99.90;22.00;99056.00;;;;5005153;28;81715;-65
2022/07/30 08:58:36;;;;;;;3.63;1.00;;;21.70;99.90;21.90;99065.00;;;;4988819;28;82153;-65
2022/07/30 09:01:04;;;;;;;2.10;0.73;;;21.60;99.90;21.90;99075.00;;;;5006170;28;84714;-65
2022/07/30 09:03:31;;;;;;;3.45;1.27;;;21.20;99.90;21.70;99065.00;;;;5019538;28;83790;-65
2022/07/30 09:06:02;;;;;;;3.22;1.05;;;;;21.20;99077.00;;;;4989167;28;86305;-64
2022/07/30 09:08:29;;;;;;;3.72;0.98;;;;;20.80;99073.00;;;;5005194;28;82245;-63
2022/07/30 09:10:56;;;;;;;2.80;0.93;;;;;20.60;99075.00;;;;5005825;28;82286;-63
2022/07/30 09:13:30;;;;;;;6.15;1.10;;;20.30;99.90;20.60;99075.00;;;;4987898;28;83969;-62
2022/07/30 09:15:59;;;;;;;2.08;1.00;;;;;20.50;99064.00;;;;5005116;28;82531;-65
2022/07/30 09:18:39;;;;;;;6.28;1.13;;;20.40;99.90;20.70;99062.00;;;;5021616;28;82078;-62
2022/07/30 09:21:30;;;;;;;4.75;1.00;;;20.60;99.90;20.80;99052.00;;;;5002490;28;82287;-64
2022/07/30 09:24:22;;;;;;;1.92;1.00;;;;;21.00;99062.00;;;;5000930;28;85011;-62
2022/07/30 09:27:12;;;;;;;3.25;1.10;;;;;21.30;99060.00;;;;5001317;28;82217;-63
2022/07/30 09:29:58;;;;;;;5.72;1.45;;;21.30;99.90;21.50;99061.00;;;;5020757;28;83441;-63
2022/07/30 09:33:00;;;;;;;2.47;1.08;;;;;21.60;99053.00;;;;4921722;28;84737;-63
2022/07/30 09:35:46;;;;;;;4.13;0.80;;;;;21.70;99068.00;;;;5013684;28;84709;-63
2022/07/30 09:39:01;;;;;;;5.57;1.63;;;21.60;99.90;21.80;99071.00;;;;4996402;28;82539;-63
2022/07/30 09:41:48;;;;;;;2.05;1.30;;;21.80;99.90;22.30;99060.00;;;;4980463;28;81957;-62
2022/07/30 09:44:24;;;;;;;3.25;1.20;;;22.50;99.90;22.80;99067.00;;;;4987908;28;82242;-63
2022/07/30 09:46:56;;;;;;;2.30;1.00;;;22.80;99.90;22.90;99064.00;;;;5004763;28;83180;-64
2022/07/30 09:49:31;;;;;;;3.38;1.25;;;;;22.60;99066.00;;;;4987459;28;83579;-64
2022/07/30 09:51:58;;;;;;;3.35;1.30;;;;;22.20;99066.00;;;;5004352;28;82462;-63
2022/07/30 09:54:47;;;;;;;3.28;1.30;;;22.30;99.90;22.40;99065.00;;;;5004404;28;83534;-63
2022/07/30 09:57:14;;;;;;;3.03;0.90;;;22.10;99.90;22.50;99065.00;;;;5003465;28;86628;-64
2022/07/30 09:59:41;;;;;;;1.48;0.77;;;;;22.60;99063.00;;;;5021155;28;83158;-64
2022/07/30 10:02:08;;;;;;;3.83;0.98;;;22.40;99.10;22.60;99054.00;;;;4986674;28;83245;-64
2022/07/30 10:04:53;;;;;;;4.75;1.98;;;22.40;99.90;22.70;99056.00;;;;5001155;28;82087;-65
2022/07/30 10:07:21;;;;;;;2.88;0.98;;;22.30;99.90;22.70;99039.00;;;;5004308;28;83601;-65
2022/07/30 10:09:48;;;;;;;2.22;0.75;;;22.60;98.60;22.70;99056.00;;;;5003973;28;83559;-65
2022/07/30 10:12:20;;;;;;;6.50;2.55;;;22.80;99.90;22.80;99034.00;;;;4987351;28;81928;-66
2022/07/30 10:14:52;;;;;;;2.90;1.63;;;22.60;99.90;22.90;99036.00;;;;5021202;28;85509;-65
2022/07/30 10:17:21;;;;;;;1.67;0.73;;;22.60;97.50;22.80;99058.00;;;;4997352;28;82527;-65
2022/07/30 10:20:16;;;;;;;5.53;0.82;;;;;22.50;99070.00;;;;4939642;28;82775;-64
2022/07/30 10:23:04;;;;;;;1.20;0.63;;;;;22.20;99058.00;;;;5020149;28;82858;-66
2022/07/30 10:25:55;;;;;;;3.38;1.00;;;21.60;99.90;21.80;99066.00;;;;4971313;28;84117;-66
2022/07/30 10:29:01;;;;;;;3.65;1.20;;;21.20;97.80;21.40;99067.00;;;;4938035;28;82546;-66
2022/07/30 10:31:29;;;;;;;2.55;0.90;;;21.30;99.90;21.20;99065.00;;;;4908617;28;84819;-66
2022/07/30 10:33:56;;;;;;;2.45;0.80;;;20.80;99.90;21.20;99069.00;;;;4970990;28;82158;-66
2022/07/30 10:36:24;;;;;;;3.60;1.33;;;21.00;99.10;21.20;99062.00;;;;5018083;28;82314;-66
2022/07/30 10:38:51;;;;;;;3.10;0.93;;;20.90;98.40;21.20;99053.00;;;;5021452;28;82398;-66
2022/07/30 10:41:51;;;;;;;1.77;1.00;;;21.00;98.30;21.20;99058.00;;;;4987730;28;82528;-65
2022/07/30 10:44:45;;;;;;;7.03;1.15;;;20.90;98.40;21.20;99061.00;;;;5019385;28;85183;-66
2022/07/30 10:47:17;;;;;;;1.48;1.00;;;21.10;99.90;21.40;99058.00;;;;5001832;28;82947;-67
2022/07/30 10:50:15;;;;;;;3.05;1.27;;;21.30;99.90;21.70;99050.00;;;;4983900;28;83665;-66
2022/07/30 10:52:51;;;;;;;3.15;0.98;;;22.10;99.90;22.00;99051.00;;;;4999583;28;83416;-66
2022/07/30 10:55:23;;;;;;;2.65;0.90;;;22.20;99.90;22.30;99062.00;;;;4980698;28;82354;-66
2022/07/30 10:58:09;;;;;;;4.43;0.95;;;22.20;96.50;22.50;99050.00;;;;5000457;28;82332;-66
2022/07/30 11:00:59;;;;;;;4.30;1.48;;;22.40;96.40;22.70;99053.00;;;;5001960;28;82552;-66
2022/07/30 11:03:28;;;;;;;2.00;1.00;;;22.60;96.20;22.80;99034.00;;;;4983855;28;82396;-67
2022/07/30 11:06:16;;;;;;;1.25;0.90;;;22.70;96.00;22.90;99048.00;;;;5001154;28;82225;-66
2022/07/30 11:08:44;;;;;;;1.65;1.08;;;22.80;99.90;23.00;99050.00;;;;4978924;28;82097;-67
2022/07/30 11:11:22;;;;;;;3.65;1.00;;;22.80;99.10;22.90;99057.00;;;;5003834;28;82430;-66
2022/07/30 11:13:56;;;;;;;1.35;0.80;;;22.00;99.90;22.60;99048.00;;;;4987119;28;83445;-65
2022/07/30 11:16:33;;;;;;;4.57;0.90;;;21.80;99.90;22.10;99052.00;;;;5003831;28;83372;-66
2022/07/30 11:19:23;;;;;;;1.52;0.77;;;21.80;95.30;22.00;99053.00;;;;5003407;28;83766;-65
2022/07/30 11:22:24;;;;;;;3.78;0.95;;;21.70;95.80;22.00;99042.00;;;;5003188;28;82799;-66
2022/07/30 11:24:51;;;;;;;;;;;21.80;95.70;22.20;99038.00;;;;4979450;28;83465;-66
2022/07/30 11:27:41;;;;;;;2.25;0.85;;;21.70;99.90;22.20;99049.00;;;;4987354;28;82033;-66
2022/07/30 11:30:20;;;;;;;1.70;0.70;;;22.00;94.80;22.30;99053.00;;;;5004230;28;83311;-66
2022/07/30 11:32:52;;;;;;;3.22;1.02;;;22.00;99.90;22.10;99044.00;;;;5002919;28;82612;-66
2022/07/30 11:35:29;;;;;;;2.45;0.88;;;21.50;93.90;21.80;99037.00;;;;4986722;28;82791;-66
2022/07/30 11:37:59;;;;;;;3.55;0.77;;;;;21.80;99023.00;;;;4975234;28;82617;-65
2022/07/30 11:41:01;;;;;;;1.58;0.77;;;21.90;94.00;22.20;99031.00;;;;5003965;28;83595;-65
2022/07/30 11:43:33;;;;;;;2.05;0.98;;;22.20;99.50;22.50;99038.00;;;;4957312;28;85311;-66
2022/07/30 11:46:16;;;;;;;2.38;0.85;;;22.50;94.20;22.70;99030.00;;;;5005513;28;83104;-65
2022/07/30 11:49:07;;;;;;;1.58;0.80;;;22.60;99.90;23.00;99032.00;;;;5007562;28;83255;-66
2022/07/30 11:51:47;;;;;;;2.75;0.82;;;23.00;99.90;23.00;99034.00;;;;5024024;28;82193;-66